sensor_id;sensor_type;location;lat;lon;timestamp;temperature;humidity
56123;DHT22;42426;46.104;19.656;2024-02-21T00:00:56;230.90;2252.80
56123;DHT22;42426;46.104;19.656;2024-02-21T00:03:22;231.00;2252.80
56123;DHT22;42426;46.104;19.656;2024-02-21T00:05:48;230.90;2252.80
56123;DHT22;42426;46.104;19.656;2024-02-21T00:08:13;230.90;2252.80
56123;DHT22;42426;46.104;19.656;2024-02-21T00:10:39;230.80;2252.80
56123;DHT22;42426;46.104;19.656;2024-02-21T00:13:05;230.80;2252.80
56123;DHT22;42426;46.104;19.656;2024-02-21T00:15:31;230.80;2252.80
56123;DHT22;42426;46.104;19.656;2024-02-21T00:17:58;230.70;2252.80
56123;DHT22;42426;46.104;19.656;2024-02-21T00:20:23;230.70;2252.80
56123;DHT22;42426;46.104;19.656;2024-02-21T00:22:51;230.70;2252.80
56123;DHT22;42426;46.104;19.656;2024-02-21T00:25:17;230.70;2252.80
56123;DHT22;42426;46.104;19.656;2024-02-21T00:27:42;230.60;2252.80
56123;DHT22;42426;46.104;19.656;2024-02-21T00:30:09;230.70;2252.80
56123;DHT22;42426;46.104;19.656;2024-02-21T00:32:35;231.00;2252.80
56123;DHT22;42426;46.104;19.656;2024-02-21T00:35:01;230.60;2252.80
56123;DHT22;42426;46.104;19.656;2024-02-21T00:37:27;230.60;2252.80
56123;DHT22;42426;46.104;19.656;2024-02-21T00:39:54;230.60;2252.80
56123;DHT22;42426;46.104;19.656;2024-02-21T00:42:20;230.50;2252.80
56123;DHT22;42426;46.104;19.656;2024-02-21T00:44:46;230.50;2252.80
56123;DHT22;42426;46.104;19.656;2024-02-21T00:47:12;230.50;2252.80
56123;DHT22;42426;46.104;19.656;2024-02-21T00:49:38;230.50;2252.80
56123;DHT22;42426;46.104;19.656;2024-02-21T00:52:04;230.40;2252.80
56123;DHT22;42426;46.104;19.656;2024-02-21T00:54:29;230.40;2252.80
56123;DHT22;42426;46.104;19.656;2024-02-21T00:56:55;205.70;2252.80
56123;DHT22;42426;46.104;19.656;2024-02-21T00:59:21;205.70;2252.80
56123;DHT22;42426;46.104;19.656;2024-02-21T01:01:47;205.70;2252.80
56123;DHT22;42426;46.104;19.656;2024-02-21T01:04:14;205.70;2252.80
56123;DHT22;42426;46.104;19.656;2024-02-21T01:06:40;205.60;2252.80
56123;DHT22;42426;46.104;19.656;2024-02-21T01:09:08;205.60;2252.80
56123;DHT22;42426;46.104;19.656;2024-02-21T01:11:34;205.50;2252.80
56123;DHT22;42426;46.104;19.656;2024-02-21T01:13:59;205.50;2252.80
56123;DHT22;42426;46.104;19.656;2024-02-21T01:16:26;205.50;2252.80
56123;DHT22;42426;46.104;19.656;2024-02-21T01:18:51;205.40;2252.80
56123;DHT22;42426;46.104;19.656;2024-02-21T01:21:17;205.40;2252.80
56123;DHT22;42426;46.104;19.656;2024-02-21T01:23:43;205.40;2252.80
56123;DHT22;42426;46.104;19.656;2024-02-21T01:26:09;205.40;2252.80
56123;DHT22;42426;46.104;19.656;2024-02-21T01:28:38;205.40;2252.80
56123;DHT22;42426;46.104;19.656;2024-02-21T01:31:04;205.40;2252.80
56123;DHT22;42426;46.104;19.656;2024-02-21T01:33:30;205.40;2252.80
56123;DHT22;42426;46.104;19.656;2024-02-21T01:36:01;205.30;2252.80
56123;DHT22;42426;46.104;19.656;2024-02-21T01:38:28;205.40;2252.80
56123;DHT22;42426;46.104;19.656;2024-02-21T01:40:54;205.30;2252.80
56123;DHT22;42426;46.104;19.656;2024-02-21T01:43:20;205.30;2252.80
56123;DHT22;42426;46.104;19.656;2024-02-21T01:45:51;205.20;2252.80
56123;DHT22;42426;46.104;19.656;2024-02-21T01:48:18;205.30;2252.80
56123;DHT22;42426;46.104;19.656;2024-02-21T01:50:49;205.20;2252.80
56123;DHT22;42426;46.104;19.656;2024-02-21T01:53:20;205.20;2252.80
56123;DHT22;42426;46.104;19.656;2024-02-21T01:55:47;205.10;2252.80
56123;DHT22;42426;46.104;19.656;2024-02-21T01:58:16;205.10;2252.80
56123;DHT22;42426;46.104;19.656;2024-02-21T02:00:45;205.20;2252.80
56123;DHT22;42426;46.104;19.656;2024-02-21T02:03:12;205.20;2252.80
56123;DHT22;42426;46.104;19.656;2024-02-21T02:05:49;205.20;2252.80
56123;DHT22;42426;46.104;19.656;2024-02-21T02:08:17;205.20;2252.80
56123;DHT22;42426;46.104;19.656;2024-02-21T02:10:43;205.20;2252.80
56123;DHT22;42426;46.104;19.656;2024-02-21T02:13:10;205.20;2252.80
56123;DHT22;42426;46.104;19.656;2024-02-21T02:15:54;205.20;2252.80
56123;DHT22;42426;46.104;19.656;2024-02-21T02:18:20;205.10;2252.80
56123;DHT22;42426;46.104;19.656;2024-02-21T02:20:47;205.20;2252.80
56123;DHT22;42426;46.104;19.656;2024-02-21T02:25:54;205.10;2252.80
56123;DHT22;42426;46.104;19.656;2024-02-21T02:28:20;205.10;2252.80
56123;DHT22;42426;46.104;19.656;2024-02-21T02:30:47;205.10;2252.80
56123;DHT22;42426;46.104;19.656;2024-02-21T02:33:13;205.10;2252.80
56123;DHT22;42426;46.104;19.656;2024-02-21T02:35:39;205.10;2252.80
56123;DHT22;42426;46.104;19.656;2024-02-21T02:38:05;205.00;2252.80
56123;DHT22;42426;46.104;19.656;2024-02-21T02:40:34;205.00;2252.80
56123;DHT22;42426;46.104;19.656;2024-02-21T02:43:00;205.00;2252.80
56123;DHT22;42426;46.104;19.656;2024-02-21T02:45:26;205.00;2252.80
56123;DHT22;42426;46.104;19.656;2024-02-21T02:47:56;205.00;2252.80
56123;DHT22;42426;46.104;19.656;2024-02-21T02:50:25;204.90;2252.80
56123;DHT22;42426;46.104;19.656;2024-02-21T02:52:52;204.90;2252.80
56123;DHT22;42426;46.104;19.656;2024-02-21T02:55:18;204.90;2252.80
56123;DHT22;42426;46.104;19.656;2024-02-21T02:57:44;204.90;2252.80
56123;DHT22;42426;46.104;19.656;2024-02-21T03:00:13;204.90;2252.80
56123;DHT22;42426;46.104;19.656;2024-02-21T03:02:41;204.80;2252.80
56123;DHT22;42426;46.104;19.656;2024-02-21T03:05:15;204.80;2252.80
56123;DHT22;42426;46.104;19.656;2024-02-21T03:07:42;180.10;2252.80
56123;DHT22;42426;46.104;19.656;2024-02-21T03:10:08;180.10;2252.80
56123;DHT22;42426;46.104;19.656;2024-02-21T03:12:34;180.10;2252.80
56123;DHT22;42426;46.104;19.656;2024-02-21T03:15:00;180.00;2252.80
56123;DHT22;42426;46.104;19.656;2024-02-21T03:17:26;180.00;2252.80
56123;DHT22;42426;46.104;19.656;2024-02-21T03:19:55;180.10;2252.80
56123;DHT22;42426;46.104;19.656;2024-02-21T03:22:21;180.10;2252.80
56123;DHT22;42426;46.104;19.656;2024-02-21T03:24:48;180.00;2252.80
56123;DHT22;42426;46.104;19.656;2024-02-21T03:27:14;180.10;2252.80
56123;DHT22;42426;46.104;19.656;2024-02-21T03:29:39;180.10;2252.80
56123;DHT22;42426;46.104;19.656;2024-02-21T03:32:05;204.80;2252.80
56123;DHT22;42426;46.104;19.656;2024-02-21T03:34:31;204.80;2252.80
56123;DHT22;42426;46.104;19.656;2024-02-21T03:36:56;204.80;2252.80
56123;DHT22;42426;46.104;19.656;2024-02-21T03:39:22;204.90;2252.80
56123;DHT22;42426;46.104;19.656;2024-02-21T03:41:48;204.90;2252.80
56123;DHT22;42426;46.104;19.656;2024-02-21T03:44:14;204.90;2252.80
56123;DHT22;42426;46.104;19.656;2024-02-21T03:46:41;205.00;2252.80
56123;DHT22;42426;46.104;19.656;2024-02-21T03:49:07;205.00;2252.80
56123;DHT22;42426;46.104;19.656;2024-02-21T03:51:32;205.00;2252.80
56123;DHT22;42426;46.104;19.656;2024-02-21T03:53:59;205.00;2252.80
56123;DHT22;42426;46.104;19.656;2024-02-21T03:56:25;205.10;2252.80
56123;DHT22;42426;46.104;19.656;2024-02-21T03:58:50;205.00;2252.80
56123;DHT22;42426;46.104;19.656;2024-02-21T04:01:16;205.00;2252.80
56123;DHT22;42426;46.104;19.656;2024-02-21T04:03:44;205.00;2252.80
56123;DHT22;42426;46.104;19.656;2024-02-21T04:06:09;205.00;2252.80
56123;DHT22;42426;46.104;19.656;2024-02-21T04:08:35;205.00;2252.80
56123;DHT22;42426;46.104;19.656;2024-02-21T04:11:01;205.00;2252.80
56123;DHT22;42426;46.104;19.656;2024-02-21T04:13:27;205.00;2252.80
56123;DHT22;42426;46.104;19.656;2024-02-21T04:15:53;205.00;2252.80
56123;DHT22;42426;46.104;19.656;2024-02-21T04:18:19;204.90;2252.80
56123;DHT22;42426;46.104;19.656;2024-02-21T04:20:44;204.90;2252.80
56123;DHT22;42426;46.104;19.656;2024-02-21T04:23:10;204.90;2252.80
56123;DHT22;42426;46.104;19.656;2024-02-21T04:25:36;204.90;2252.80
56123;DHT22;42426;46.104;19.656;2024-02-21T04:28:02;204.90;2252.80
56123;DHT22;42426;46.104;19.656;2024-02-21T04:30:28;204.80;2252.80
56123;DHT22;42426;46.104;19.656;2024-02-21T04:32:54;204.80;2252.80
56123;DHT22;42426;46.104;19.656;2024-02-21T04:35:20;204.80;2252.80
56123;DHT22;42426;46.104;19.656;2024-02-21T04:37:46;204.80;2252.80
56123;DHT22;42426;46.104;19.656;2024-02-21T04:40:13;204.80;2252.80
56123;DHT22;42426;46.104;19.656;2024-02-21T04:42:40;204.80;2252.80
56123;DHT22;42426;46.104;19.656;2024-02-21T04:45:06;204.80;2252.80
56123;DHT22;42426;46.104;19.656;2024-02-21T04:47:32;204.80;2252.80
56123;DHT22;42426;46.104;19.656;2024-02-21T04:49:57;204.80;2252.80
56123;DHT22;42426;46.104;19.656;2024-02-21T04:52:23;204.80;2252.80
56123;DHT22;42426;46.104;19.656;2024-02-21T04:54:49;204.80;2252.80
56123;DHT22;42426;46.104;19.656;2024-02-21T04:57:15;204.80;2252.80
56123;DHT22;42426;46.104;19.656;2024-02-21T04:59:45;204.80;2252.80
56123;DHT22;42426;46.104;19.656;2024-02-21T05:02:13;204.80;2252.80
56123;DHT22;42426;46.104;19.656;2024-02-21T05:04:39;204.80;2252.80
56123;DHT22;42426;46.104;19.656;2024-02-21T05:07:07;204.80;2252.80
56123;DHT22;42426;46.104;19.656;2024-02-21T05:09:33;204.80;2252.80
56123;DHT22;42426;46.104;19.656;2024-02-21T05:11:59;204.80;2252.80
56123;DHT22;42426;46.104;19.656;2024-02-21T05:14:27;180.10;2252.80
56123;DHT22;42426;46.104;19.656;2024-02-21T05:16:53;180.10;2252.80
56123;DHT22;42426;46.104;19.656;2024-02-21T05:19:19;204.80;2252.80
56123;DHT22;42426;46.104;19.656;2024-02-21T05:21:45;204.80;2252.80
56123;DHT22;42426;46.104;19.656;2024-02-21T05:24:11;204.80;2252.80
56123;DHT22;42426;46.104;19.656;2024-02-21T05:26:37;204.80;2252.80
56123;DHT22;42426;46.104;19.656;2024-02-21T05:29:04;180.10;2252.80
56123;DHT22;42426;46.104;19.656;2024-02-21T05:34:21;180.10;2252.80
56123;DHT22;42426;46.104;19.656;2024-02-21T05:36:47;180.10;2252.80
56123;DHT22;42426;46.104;19.656;2024-02-21T05:39:14;180.10;2252.80
56123;DHT22;42426;46.104;19.656;2024-02-21T05:41:40;180.10;2252.80
56123;DHT22;42426;46.104;19.656;2024-02-21T05:44:05;180.10;2252.80
56123;DHT22;42426;46.104;19.656;2024-02-21T05:46:32;180.00;2252.80
56123;DHT22;42426;46.104;19.656;2024-02-21T05:48:57;180.00;2252.80
56123;DHT22;42426;46.104;19.656;2024-02-21T05:51:23;180.00;2252.80
56123;DHT22;42426;46.104;19.656;2024-02-21T05:53:49;180.00;2252.80
56123;DHT22;42426;46.104;19.656;2024-02-21T05:56:15;180.10;2252.80
56123;DHT22;42426;46.104;19.656;2024-02-21T05:58:43;180.10;2252.80
56123;DHT22;42426;46.104;19.656;2024-02-21T06:01:09;180.10;2252.80
56123;DHT22;42426;46.104;19.656;2024-02-21T06:03:35;180.00;2252.80
56123;DHT22;42426;46.104;19.656;2024-02-21T06:06:02;180.00;2252.80
56123;DHT22;42426;46.104;19.656;2024-02-21T06:08:28;180.00;2252.80
56123;DHT22;42426;46.104;19.656;2024-02-21T06:10:54;180.00;2252.80
56123;DHT22;42426;46.104;19.656;2024-02-21T06:13:21;180.10;2252.80
56123;DHT22;42426;46.104;19.656;2024-02-21T06:15:47;180.10;2252.80
56123;DHT22;42426;46.104;19.656;2024-02-21T06:18:13;180.00;2252.80
56123;DHT22;42426;46.104;19.656;2024-02-21T06:20:39;180.00;2252.80
56123;DHT22;42426;46.104;19.656;2024-02-21T06:23:09;180.00;2252.80
56123;DHT22;42426;46.104;19.656;2024-02-21T06:25:35;180.00;2252.80
56123;DHT22;42426;46.104;19.656;2024-02-21T06:28:01;180.00;2252.80
56123;DHT22;42426;46.104;19.656;2024-02-21T06:30:27;180.00;2252.80
56123;DHT22;42426;46.104;19.656;2024-02-21T06:32:53;180.00;2252.80
56123;DHT22;42426;46.104;19.656;2024-02-21T06:35:21;180.00;2252.80
56123;DHT22;42426;46.104;19.656;2024-02-21T06:37:47;180.10;2252.80
56123;DHT22;42426;46.104;19.656;2024-02-21T06:40:17;180.10;2252.80
56123;DHT22;42426;46.104;19.656;2024-02-21T06:42:42;180.10;2252.80
56123;DHT22;42426;46.104;19.656;2024-02-21T06:45:08;204.80;2252.80
56123;DHT22;42426;46.104;19.656;2024-02-21T06:47:34;204.80;2252.80
56123;DHT22;42426;46.104;19.656;2024-02-21T06:50:00;204.80;2252.80
56123;DHT22;42426;46.104;19.656;2024-02-21T06:52:26;204.90;2252.80
56123;DHT22;42426;46.104;19.656;2024-02-21T06:54:52;204.90;2252.80
56123;DHT22;42426;46.104;19.656;2024-02-21T06:57:18;204.90;2252.80
56123;DHT22;42426;46.104;19.656;2024-02-21T06:59:45;205.00;2252.80
56123;DHT22;42426;46.104;19.656;2024-02-21T07:02:10;205.00;2252.80
56123;DHT22;42426;46.104;19.656;2024-02-21T07:04:36;205.00;2252.80
56123;DHT22;42426;46.104;19.656;2024-02-21T07:07:02;205.00;2252.80
56123;DHT22;42426;46.104;19.656;2024-02-21T07:09:28;205.00;2252.80
56123;DHT22;42426;46.104;19.656;2024-02-21T07:12:00;205.10;2252.80
56123;DHT22;42426;46.104;19.656;2024-02-21T07:14:27;205.10;2252.80
56123;DHT22;42426;46.104;19.656;2024-02-21T07:16:53;205.10;2252.80
56123;DHT22;42426;46.104;19.656;2024-02-21T07:19:20;205.20;2252.80
56123;DHT22;42426;46.104;19.656;2024-02-21T07:21:45;205.30;2252.80
56123;DHT22;42426;46.104;19.656;2024-02-21T07:24:11;205.20;2252.80
56123;DHT22;42426;46.104;19.656;2024-02-21T07:26:41;205.30;2252.80
56123;DHT22;42426;46.104;19.656;2024-02-21T07:29:07;205.40;2252.80
56123;DHT22;42426;46.104;19.656;2024-02-21T07:31:40;205.40;2252.80
56123;DHT22;42426;46.104;19.656;2024-02-21T07:34:06;205.50;2252.80
56123;DHT22;42426;46.104;19.656;2024-02-21T07:36:32;205.50;2252.80
56123;DHT22;42426;46.104;19.656;2024-02-21T07:38:57;205.50;2252.80
56123;DHT22;42426;46.104;19.656;2024-02-21T07:41:23;205.60;2252.80
56123;DHT22;42426;46.104;19.656;2024-02-21T07:43:49;205.70;2252.80
56123;DHT22;42426;46.104;19.656;2024-02-21T07:46:15;205.70;2252.80
56123;DHT22;42426;46.104;19.656;2024-02-21T07:48:41;230.40;2252.80
56123;DHT22;42426;46.104;19.656;2024-02-21T07:51:07;230.50;2252.80
56123;DHT22;42426;46.104;19.656;2024-02-21T07:53:32;230.60;2252.80
56123;DHT22;42426;46.104;19.656;2024-02-21T07:55:58;230.60;2252.80
56123;DHT22;42426;46.104;19.656;2024-02-21T07:58:25;230.70;2252.80
56123;DHT22;42426;46.104;19.656;2024-02-21T08:00:51;230.80;2252.80
56123;DHT22;42426;46.104;19.656;2024-02-21T08:03:16;230.90;2252.80
56123;DHT22;42426;46.104;19.656;2024-02-21T08:05:43;231.00;2252.80
56123;DHT22;42426;46.104;19.656;2024-02-21T08:08:09;231.00;2252.80
56123;DHT22;42426;46.104;19.656;2024-02-21T08:10:35;231.10;2252.80
56123;DHT22;42426;46.104;19.656;2024-02-21T08:13:01;231.10;2252.80
56123;DHT22;42426;46.104;19.656;2024-02-21T08:15:26;231.20;2252.80
56123;DHT22;42426;46.104;19.656;2024-02-21T08:17:55;231.30;2252.80
56123;DHT22;42426;46.104;19.656;2024-02-21T08:20:25;231.20;2252.80
56123;DHT22;42426;46.104;19.656;2024-02-21T08:22:51;231.30;2252.80
56123;DHT22;42426;46.104;19.656;2024-02-21T08:25:16;256.00;2252.80
56123;DHT22;42426;46.104;19.656;2024-02-21T08:27:42;256.10;2252.80
56123;DHT22;42426;46.104;19.656;2024-02-21T08:30:08;256.20;2252.80
56123;DHT22;42426;46.104;19.656;2024-02-21T08:32:34;256.10;2252.80
56123;DHT22;42426;46.104;19.656;2024-02-21T08:35:01;256.20;2252.80
56123;DHT22;42426;46.104;19.656;2024-02-21T08:37:27;256.20;2252.80
56123;DHT22;42426;46.104;19.656;2024-02-21T08:39:53;256.40;2252.80
56123;DHT22;42426;46.104;19.656;2024-02-21T08:42:19;256.50;2252.80
56123;DHT22;42426;46.104;19.656;2024-02-21T08:44:45;256.60;2252.80
56123;DHT22;42426;46.104;19.656;2024-02-21T08:47:11;256.70;2252.80
56123;DHT22;42426;46.104;19.656;2024-02-21T08:49:37;256.60;2252.80
56123;DHT22;42426;46.104;19.656;2024-02-21T08:52:04;256.70;2252.80
56123;DHT22;42426;46.104;19.656;2024-02-21T08:54:31;256.60;2252.80
56123;DHT22;42426;46.104;19.656;2024-02-21T08:56:58;256.60;2252.80
56123;DHT22;42426;46.104;19.656;2024-02-21T08:59:24;256.70;2252.80
56123;DHT22;42426;46.104;19.656;2024-02-21T09:01:51;256.70;2252.80
56123;DHT22;42426;46.104;19.656;2024-02-21T09:04:20;256.70;2252.80
56123;DHT22;42426;46.104;19.656;2024-02-21T09:06:48;256.80;2252.80
56123;DHT22;42426;46.104;19.656;2024-02-21T09:09:14;256.90;2252.80
56123;DHT22;42426;46.104;19.656;2024-02-21T09:11:41;256.80;2252.80
56123;DHT22;42426;46.104;19.656;2024-02-21T09:14:06;256.90;2252.80
56123;DHT22;42426;46.104;19.656;2024-02-21T09:16:32;256.90;2252.80
56123;DHT22;42426;46.104;19.656;2024-02-21T09:18:58;256.80;2252.80
56123;DHT22;42426;46.104;19.656;2024-02-21T09:21:24;256.90;2252.80
56123;DHT22;42426;46.104;19.656;2024-02-21T09:23:50;281.60;2278.40
56123;DHT22;42426;46.104;19.656;2024-02-21T09:26:16;281.60;2278.40
56123;DHT22;42426;46.104;19.656;2024-02-21T09:28:45;281.60;2278.40
56123;DHT22;42426;46.104;19.656;2024-02-21T09:31:11;281.80;2278.40
56123;DHT22;42426;46.104;19.656;2024-02-21T09:33:37;281.80;2278.40
56123;DHT22;42426;46.104;19.656;2024-02-21T09:36:03;281.90;2278.40
56123;DHT22;42426;46.104;19.656;2024-02-21T09:38:31;281.90;2278.40
56123;DHT22;42426;46.104;19.656;2024-02-21T09:43:31;281.90;2278.40
56123;DHT22;42426;46.104;19.656;2024-02-21T09:45:58;282.00;2278.40
56123;DHT22;42426;46.104;19.656;2024-02-21T09:51:06;282.10;2278.40
56123;DHT22;42426;46.104;19.656;2024-02-21T09:53:32;282.20;2278.40
56123;DHT22;42426;46.104;19.656;2024-02-21T09:55:59;282.10;2278.40
56123;DHT22;42426;46.104;19.656;2024-02-21T09:58:26;282.10;2278.40
56123;DHT22;42426;46.104;19.656;2024-02-21T10:00:53;282.10;2278.40
56123;DHT22;42426;46.104;19.656;2024-02-21T10:03:18;282.20;2278.40
56123;DHT22;42426;46.104;19.656;2024-02-21T10:05:48;282.20;2278.40
56123;DHT22;42426;46.104;19.656;2024-02-21T10:08:18;282.30;2278.40
56123;DHT22;42426;46.104;19.656;2024-02-21T10:10:45;282.30;2278.40
56123;DHT22;42426;46.104;19.656;2024-02-21T10:13:25;282.40;2278.40
56123;DHT22;42426;46.104;19.656;2024-02-21T10:16:08;282.50;2278.40
56123;DHT22;42426;46.104;19.656;2024-02-21T10:18:34;282.50;2278.40
56123;DHT22;42426;46.104;19.656;2024-02-21T10:21:07;282.50;2278.40
56123;DHT22;42426;46.104;19.656;2024-02-21T10:23:47;307.30;2304.00
56123;DHT22;42426;46.104;19.656;2024-02-21T10:26:14;307.20;2304.00
56123;DHT22;42426;46.104;19.656;2024-02-21T10:28:41;307.40;2304.00
56123;DHT22;42426;46.104;19.656;2024-02-21T10:31:09;307.40;2304.00
56123;DHT22;42426;46.104;19.656;2024-02-21T10:33:35;307.50;2304.00
56123;DHT22;42426;46.104;19.656;2024-02-21T10:36:11;307.50;2304.00
56123;DHT22;42426;46.104;19.656;2024-02-21T10:38:37;307.50;2304.00
56123;DHT22;42426;46.104;19.656;2024-02-21T10:41:07;307.60;2304.00
56123;DHT22;42426;46.104;19.656;2024-02-21T10:43:40;307.70;2278.40
56123;DHT22;42426;46.104;19.656;2024-02-21T10:46:09;307.80;2278.40
56123;DHT22;42426;46.104;19.656;2024-02-21T10:48:42;307.80;2252.80
56123;DHT22;42426;46.104;19.656;2024-02-21T10:51:20;307.80;2252.80
56123;DHT22;42426;46.104;19.656;2024-02-21T10:56:38;307.70;2201.60
56123;DHT22;42426;46.104;19.656;2024-02-21T10:59:07;307.60;2201.60
56123;DHT22;42426;46.104;19.656;2024-02-21T11:01:33;307.80;2227.20
56123;DHT22;42426;46.104;19.656;2024-02-21T11:04:11;307.80;2201.60
56123;DHT22;42426;46.104;19.656;2024-02-21T11:06:39;308.00;2201.60
56123;DHT22;42426;46.104;19.656;2024-02-21T11:09:08;307.80;2201.60
56123;DHT22;42426;46.104;19.656;2024-02-21T11:11:39;307.90;2176.00
56123;DHT22;42426;46.104;19.656;2024-02-21T11:14:17;307.90;2176.00
56123;DHT22;42426;46.104;19.656;2024-02-21T11:16:43;307.80;2201.60
56123;DHT22;42426;46.104;19.656;2024-02-21T11:19:20;307.90;2201.60
56123;DHT22;42426;46.104;19.656;2024-02-21T11:21:46;307.90;2176.00
56123;DHT22;42426;46.104;19.656;2024-02-21T11:24:13;307.90;2176.00
56123;DHT22;42426;46.104;19.656;2024-02-21T11:26:40;307.80;2150.40
56123;DHT22;42426;46.104;19.656;2024-02-21T11:29:09;307.80;2150.40
56123;DHT22;42426;46.104;19.656;2024-02-21T11:31:40;307.90;2124.80
56123;DHT22;42426;46.104;19.656;2024-02-21T11:34:12;308.00;2124.80
56123;DHT22;42426;46.104;19.656;2024-02-21T11:36:52;308.00;2124.80
56123;DHT22;42426;46.104;19.656;2024-02-21T11:39:25;308.10;2124.80
56123;DHT22;42426;46.104;19.656;2024-02-21T11:42:05;332.80;2150.40
56123;DHT22;42426;46.104;19.656;2024-02-21T11:44:32;332.80;2073.60
56123;DHT22;42426;46.104;19.656;2024-02-21T11:46:58;332.80;2073.60
56123;DHT22;42426;46.104;19.656;2024-02-21T11:49:30;332.90;2099.20
56123;DHT22;42426;46.104;19.656;2024-02-21T11:52:00;332.90;2099.20
56123;DHT22;42426;46.104;19.656;2024-02-21T11:54:27;333.00;2124.80
56123;DHT22;42426;46.104;19.656;2024-02-21T11:56:53;333.10;2099.20
56123;DHT22;42426;46.104;19.656;2024-02-21T11:59:19;333.10;2048.00
56123;DHT22;42426;46.104;19.656;2024-02-21T12:01:46;333.20;2073.60
56123;DHT22;42426;46.104;19.656;2024-02-21T12:04:12;333.30;2073.60
56123;DHT22;42426;46.104;19.656;2024-02-21T12:06:38;333.30;2073.60
56123;DHT22;42426;46.104;19.656;2024-02-21T12:09:07;333.30;2099.20
56123;DHT22;42426;46.104;19.656;2024-02-21T12:11:34;333.30;2073.60
56123;DHT22;42426;46.104;19.656;2024-02-21T12:14:01;333.20;2073.60
56123;DHT22;42426;46.104;19.656;2024-02-21T12:16:29;333.10;2073.60
56123;DHT22;42426;46.104;19.656;2024-02-21T12:18:59;333.10;2073.60
56123;DHT22;42426;46.104;19.656;2024-02-21T12:21:31;333.00;2073.60
56123;DHT22;42426;46.104;19.656;2024-02-21T12:23:59;332.90;2048.00
56123;DHT22;42426;46.104;19.656;2024-02-21T12:26:26;332.90;2073.60
56123;DHT22;42426;46.104;19.656;2024-02-21T12:28:55;332.90;2048.00
56123;DHT22;42426;46.104;19.656;2024-02-21T12:31:21;332.90;2048.00
56123;DHT22;42426;46.104;19.656;2024-02-21T12:33:47;332.80;2022.40
56123;DHT22;42426;46.104;19.656;2024-02-21T12:36:13;332.80;2048.00
56123;DHT22;42426;46.104;19.656;2024-02-21T12:38:40;332.90;2048.00
56123;DHT22;42426;46.104;19.656;2024-02-21T12:41:06;332.90;2048.00
56123;DHT22;42426;46.104;19.656;2024-02-21T12:43:33;332.90;2073.60
56123;DHT22;42426;46.104;19.656;2024-02-21T12:45:59;332.90;2048.00
56123;DHT22;42426;46.104;19.656;2024-02-21T12:48:25;333.00;2048.00
56123;DHT22;42426;46.104;19.656;2024-02-21T12:50:51;332.90;2073.60
56123;DHT22;42426;46.104;19.656;2024-02-21T12:53:21;332.80;2073.60
56123;DHT22;42426;46.104;19.656;2024-02-21T12:55:48;332.80;2073.60
56123;DHT22;42426;46.104;19.656;2024-02-21T12:58:14;332.80;2099.20
56123;DHT22;42426;46.104;19.656;2024-02-21T13:00:41;332.90;2073.60
56123;DHT22;42426;46.104;19.656;2024-02-21T13:03:07;332.80;2073.60
56123;DHT22;42426;46.104;19.656;2024-02-21T13:05:33;332.80;2048.00
56123;DHT22;42426;46.104;19.656;2024-02-21T13:07:59;332.80;2048.00
56123;DHT22;42426;46.104;19.656;2024-02-21T13:10:25;332.80;2022.40
56123;DHT22;42426;46.104;19.656;2024-02-21T13:12:52;332.80;2048.00
56123;DHT22;42426;46.104;19.656;2024-02-21T13:15:18;332.80;2048.00
56123;DHT22;42426;46.104;19.656;2024-02-21T13:17:45;332.80;2073.60
56123;DHT22;42426;46.104;19.656;2024-02-21T13:20:11;332.90;2073.60
56123;DHT22;42426;46.104;19.656;2024-02-21T13:22:37;332.90;2073.60
56123;DHT22;42426;46.104;19.656;2024-02-21T13:25:04;332.90;2073.60
56123;DHT22;42426;46.104;19.656;2024-02-21T13:27:33;332.90;2099.20
56123;DHT22;42426;46.104;19.656;2024-02-21T13:29:58;333.00;2099.20
56123;DHT22;42426;46.104;19.656;2024-02-21T13:32:26;333.00;2073.60
56123;DHT22;42426;46.104;19.656;2024-02-21T13:34:51;333.00;2073.60
56123;DHT22;42426;46.104;19.656;2024-02-21T13:37:18;332.90;2073.60
56123;DHT22;42426;46.104;19.656;2024-02-21T13:39:44;333.00;2099.20
56123;DHT22;42426;46.104;19.656;2024-02-21T13:42:09;333.00;2048.00
56123;DHT22;42426;46.104;19.656;2024-02-21T13:44:35;333.10;2048.00
56123;DHT22;42426;46.104;19.656;2024-02-21T13:47:03;333.20;2048.00
56123;DHT22;42426;46.104;19.656;2024-02-21T13:49:30;333.20;2048.00
56123;DHT22;42426;46.104;19.656;2024-02-21T13:51:56;333.30;2022.40
56123;DHT22;42426;46.104;19.656;2024-02-21T13:54:21;333.30;2022.40
56123;DHT22;42426;46.104;19.656;2024-02-21T13:56:47;333.30;2022.40
56123;DHT22;42426;46.104;19.656;2024-02-21T13:59:13;333.40;1996.80
56123;DHT22;42426;46.104;19.656;2024-02-21T14:01:39;333.40;1971.20
56123;DHT22;42426;46.104;19.656;2024-02-21T14:04:05;333.50;1971.20
56123;DHT22;42426;46.104;19.656;2024-02-21T14:06:30;333.40;1971.20
56123;DHT22;42426;46.104;19.656;2024-02-21T14:08:57;333.30;1996.80
56123;DHT22;42426;46.104;19.656;2024-02-21T14:11:23;333.10;1996.80
56123;DHT22;42426;46.104;19.656;2024-02-21T14:13:49;333.10;2022.40
56123;DHT22;42426;46.104;19.656;2024-02-21T14:16:15;333.00;2022.40
56123;DHT22;42426;46.104;19.656;2024-02-21T14:18:41;332.90;2022.40
56123;DHT22;42426;46.104;19.656;2024-02-21T14:21:08;332.90;2022.40
56123;DHT22;42426;46.104;19.656;2024-02-21T14:23:37;332.80;2073.60
56123;DHT22;42426;46.104;19.656;2024-02-21T14:26:05;332.90;2048.00
56123;DHT22;42426;46.104;19.656;2024-02-21T14:28:32;332.80;2022.40
56123;DHT22;42426;46.104;19.656;2024-02-21T14:30:59;308.10;2022.40
56123;DHT22;42426;46.104;19.656;2024-02-21T14:33:29;308.00;2048.00
56123;DHT22;42426;46.104;19.656;2024-02-21T14:35:56;308.00;2099.20
56123;DHT22;42426;46.104;19.656;2024-02-21T14:38:22;308.00;2048.00
56123;DHT22;42426;46.104;19.656;2024-02-21T14:40:48;308.00;2073.60
56123;DHT22;42426;46.104;19.656;2024-02-21T14:43:14;308.00;2073.60
56123;DHT22;42426;46.104;19.656;2024-02-21T14:45:40;307.90;2124.80
56123;DHT22;42426;46.104;19.656;2024-02-21T14:48:06;307.90;2073.60